Time;durP1;ratioP1;P1;durP2;ratioP2;P2;SDS_P1;SDS_P2;PMS_P1;PMS_P2;Temp;Humidity;BMP_temperature;BMP_pressure;BME280_temperature;BME280_humidity;BME280_pressure;Samples;Min_cycle;Max_cycle;Signal;HPM_P1;HPM_P2
2021/07/24 00:01:10;;;;;;;20.17;14.18;;;;;;;25.23;61.30;97154.31;4974364;28;20440;-63
2021/07/24 00:03:36;;;;;;;21.15;13.07;;;;;;;25.16;61.32;97150.75;4974935;28;20031;-63
2021/07/24 00:06:03;;;;;;;16.52;12.32;;;;;;;25.23;61.72;97140.53;4976759;28;20043;-62
2021/07/24 00:08:28;;;;;;;19.75;12.13;;;;;;;25.30;61.04;97140.50;4975145;28;20035;-62
2021/07/24 00:10:54;;;;;;;23.02;14.43;;;;;;;25.35;60.80;97139.88;4976442;28;20027;-62
2021/07/24 00:13:19;;;;;;;20.92;14.02;;;;;;;25.47;60.07;97135.31;4977407;28;20066;-62
2021/07/24 00:15:45;;;;;;;21.55;13.85;;;;;;;25.53;59.88;97128.91;4977316;28;20463;-62
2021/07/24 00:18:11;;;;;;;20.35;13.95;;;;;;;25.55;59.46;97125.94;4976656;28;20121;-62
2021/07/24 00:20:36;;;;;;;21.13;13.93;;;;;;;25.59;59.43;97124.44;4977142;28;20034;-62
2021/07/24 00:23:03;;;;;;;21.80;15.02;;;;;;;25.55;59.25;97124.03;4975729;28;20457;-62
2021/07/24 00:25:29;;;;;;;21.27;14.23;;;;;;;25.67;59.03;97129.66;4976642;28;20403;-62
2021/07/24 00:27:54;;;;;;;23.90;14.98;;;;;;;25.55;59.38;97132.28;4977055;28;20065;-62
2021/07/24 00:30:20;;;;;;;22.50;15.45;;;;;;;25.49;59.01;97126.84;4977176;28;20050;-62
2021/07/24 00:32:45;;;;;;;21.95;14.75;;;;;;;25.51;59.54;97131.06;4976737;28;20027;-62
2021/07/24 00:35:12;;;;;;;21.75;13.45;;;;;;;25.60;59.04;97133.53;4976977;28;20090;-62
2021/07/24 00:37:37;;;;;;;23.08;14.63;;;;;;;25.51;59.61;97135.72;4976918;28;20030;-62
2021/07/24 00:40:03;;;;;;;19.13;14.20;;;;;;;25.24;60.24;97130.38;4976906;28;20491;-62
2021/07/24 00:42:30;;;;;;;20.98;13.82;;;;;;;25.24;60.19;97128.47;4975394;28;20019;-62
2021/07/24 00:45:01;;;;;;;19.92;13.45;;;;;;;25.07;61.21;97125.41;4976776;28;20019;-62
2021/07/24 00:47:54;;;;;;;19.63;13.55;;;;;;;25.11;61.11;97128.56;4976328;28;20414;-62
2021/07/24 00:50:20;;;;;;;19.92;13.13;;;;;;;25.22;60.36;97130.59;4972226;28;20027;-62
2021/07/24 00:52:48;;;;;;;22.90;15.35;;;;;;;25.03;60.61;97126.91;4975599;28;20034;-63
2021/07/24 00:55:14;;;;;;;21.05;14.38;;;;;;;25.04;61.11;97125.84;4974848;28;20022;-62
2021/07/24 00:57:44;;;;;;;19.92;13.98;;;;;;;25.04;60.78;97125.84;4976592;28;20031;-62
2021/07/24 01:00:11;;;;;;;21.95;14.98;;;;;;;25.02;60.77;97130.72;4976581;28;20027;-62
2021/07/24 01:02:37;;;;;;;20.63;14.18;;;;;;;25.01;60.89;97123.56;4977306;28;20045;-62
2021/07/24 01:05:04;;;;;;;23.95;14.68;;;;;;;24.90;61.34;97124.25;4976140;28;20027;-62
2021/07/24 01:07:33;;;;;;;22.35;14.55;;;;;;;24.88;61.12;97127.22;4976124;28;20494;-62
2021/07/24 01:09:58;;;;;;;24.20;14.40;;;;;;;24.89;61.59;97117.06;4959001;28;20038;-62
2021/07/24 01:12:24;;;;;;;22.55;13.23;;;;;;;24.81;62.16;97122.81;4975102;28;20375;-62
2021/07/24 01:14:50;;;;;;;20.05;14.07;;;;;;;24.79;61.80;97112.03;4976575;28;20073;-62
2021/07/24 01:17:15;;;;;;;19.67;13.60;;;;;;;24.93;61.39;97120.22;4974789;28;20471;-62
2021/07/24 01:19:41;;;;;;;23.45;14.20;;;;;;;24.90;61.51;97119.56;4974655;28;20113;-62
2021/07/24 01:22:06;;;;;;;22.83;14.10;;;;;;;24.86;61.29;97110.09;4975764;28;20463;-62
2021/07/24 01:24:32;;;;;;;22.05;12.80;;;;;;;24.73;62.23;97130.25;4975582;28;20023;-62
2021/07/24 01:26:57;;;;;;;22.67;13.82;;;;;;;24.77;61.68;97135.31;4973360;28;20130;-63
2021/07/24 01:29:24;;;;;;;19.02;12.63;;;;;;;24.80;61.88;97124.72;4975496;28;20039;-62
2021/07/24 01:31:49;;;;;;;18.52;12.93;;;;;;;24.82;62.03;97128.09;4975938;28;20109;-62
2021/07/24 01:34:15;;;;;;;21.38;13.60;;;;;;;24.77;61.93;97124.31;4975410;28;20041;-62
2021/07/24 01:36:41;;;;;;;20.77;13.45;;;;;;;24.83;61.67;97128.94;4975627;28;20058;-62
2021/07/24 01:39:08;;;;;;;20.65;13.60;;;;;;;24.81;62.02;97123.66;4976141;28;20452;-62
2021/07/24 01:41:33;;;;;;;23.33;13.48;;;;;;;24.83;61.92;97129.78;4974277;28;20388;-62
2021/07/24 01:43:59;;;;;;;20.48;13.02;;;;;;;24.90;61.64;97138.84;4975799;28;20094;-62
2021/07/24 01:46:24;;;;;;;17.58;12.70;;;;;;;25.07;61.21;97143.84;4975403;28;20094;-62
2021/07/24 01:49:04;;;;;;;23.10;13.45;;;;;;;24.93;61.26;97148.56;4974246;28;20023;-62
2021/07/24 01:54:28;;;;;;;18.50;13.43;;;;;;;25.04;61.11;97152.50;4975644;28;20049;-62
2021/07/24 01:56:54;;;;;;;20.45;13.85;;;;;;;25.16;60.67;97148.00;4974924;28;20038;-62
2021/07/24 01:59:22;;;;;;;19.95;14.43;;;;;;;25.10;60.63;97145.31;4974044;28;20125;-62
2021/07/24 02:01:49;;;;;;;21.13;13.55;;;;;;;25.13;60.88;97153.09;4974013;28;20058;-62
2021/07/24 02:04:19;;;;;;;19.92;13.07;;;;;;;25.23;60.14;97146.03;4975095;28;20023;-62
2021/07/24 02:06:44;;;;;;;20.85;14.00;;;;;;;25.31;59.44;97144.94;4975175;28;20030;-62
2021/07/24 02:09:10;;;;;;;23.08;14.18;;;;;;;25.20;60.23;97148.38;4975200;28;20029;-62
2021/07/24 02:11:35;;;;;;;20.23;13.88;;;;;;;25.20;60.30;97146.50;4975107;28;20475;-62
2021/07/24 02:14:01;;;;;;;17.70;12.80;;;;;;;25.23;59.98;97146.03;4975291;28;20030;-62
2021/07/24 02:16:26;;;;;;;21.08;13.70;;;;;;;25.22;60.41;97155.34;4974861;28;20500;-62
2021/07/24 02:18:51;;;;;;;17.65;13.93;;;;;;;25.20;60.54;97160.25;4974020;28;20035;-62
2021/07/24 02:21:17;;;;;;;19.17;13.65;;;;;;;25.08;60.72;97153.78;4974954;28;20459;-62
2021/07/24 02:23:42;;;;;;;20.75;13.55;;;;;;;24.94;61.56;97149.41;4973924;28;20096;-62
2021/07/24 02:26:11;;;;;;;18.73;12.90;;;;;;;24.89;61.86;97147.31;4974609;28;20038;-62
2021/07/24 02:28:37;;;;;;;20.13;13.90;;;;;;;24.74;62.39;97140.19;4975023;28;20031;-62
2021/07/24 02:31:02;;;;;;;21.23;14.27;;;;;;;24.78;61.96;97132.34;4975075;28;20031;-62
2021/07/24 02:33:27;;;;;;;21.83;13.82;;;;;;;24.91;61.59;97128.69;4974884;28;20023;-62
2021/07/24 02:35:53;;;;;;;20.05;13.90;;;;;;;24.91;61.39;97125.94;4974760;28;20031;-62
2021/07/24 02:38:18;;;;;;;22.52;14.23;;;;;;;24.85;61.13;97121.31;4974643;28;20395;-62
2021/07/24 02:40:44;;;;;;;21.42;13.90;;;;;;;24.79;61.02;97112.03;4974801;28;20034;-62
2021/07/24 02:43:09;;;;;;;19.88;13.23;;;;;;;24.68;61.00;97110.84;4974751;28;20110;-62
2021/07/24 02:45:35;;;;;;;20.25;13.82;;;;;;;24.84;60.16;97108.63;4973530;28;20031;-62
2021/07/24 02:48:00;;;;;;;19.52;13.75;;;;;;;24.69;60.47;97100.66;4974790;28;20526;-62
2021/07/24 02:50:26;;;;;;;22.65;13.88;;;;;;;24.71;60.42;97104.88;4974668;28;20034;-62
2021/07/24 02:52:51;;;;;;;22.65;13.75;;;;;;;24.78;60.19;97110.34;4974788;28;20030;-62
2021/07/24 02:55:16;;;;;;;19.40;13.85;;;;;;;24.70;60.33;97108.69;4974242;28;20030;-62
2021/07/24 02:57:42;;;;;;;21.63;13.38;;;;;;;24.73;60.17;97105.53;4974723;28;20034;-62
2021/07/24 03:00:08;;;;;;;22.33;14.55;;;;;;;24.49;60.71;97103.47;4973597;28;20111;-62
2021/07/24 03:02:33;;;;;;;21.27;12.45;;;;;;;24.75;60.08;97094.28;4973214;28;20035;-62
2021/07/24 03:04:59;;;;;;;22.75;14.13;;;;;;;24.78;59.57;97091.09;4974301;28;20027;-62
2021/07/24 03:07:24;;;;;;;20.00;13.40;;;;;;;24.87;59.26;97087.03;4974313;28;20038;-62
2021/07/24 03:09:50;;;;;;;20.58;12.07;;;;;;;24.89;58.97;97084.03;4977048;28;20035;-62
2021/07/24 03:12:17;;;;;;;18.25;12.65;;;;;;;24.75;59.16;97094.28;4978476;28;20027;-62
2021/07/24 03:14:43;;;;;;;18.52;12.65;;;;;;;24.64;59.34;97103.22;4978461;28;20030;-62
2021/07/24 03:17:08;;;;;;;19.00;11.68;;;;;;;24.74;58.69;97109.09;4978508;28;20054;-62
2021/07/24 03:19:34;;;;;;;20.38;12.00;;;;;;;24.73;58.89;97115.66;4976856;28;20058;-62
2021/07/24 03:21:59;;;;;;;20.52;11.65;;;;;;;24.81;58.48;97111.81;4978284;28;20027;-62
2021/07/24 03:24:24;;;;;;;19.75;11.25;;;;;;;24.81;58.39;97112.66;4978259;28;20177;-62
2021/07/24 03:26:50;;;;;;;15.57;11.27;;;;;;;24.82;58.45;97117.09;4977902;28;20050;-62
2021/07/24 03:29:15;;;;;;;19.13;10.52;;;;;;;24.84;58.10;97114.97;4978151;28;20129;-62
2021/07/24 03:31:41;;;;;;;20.05;10.85;;;;;;;24.89;57.68;97104.16;4978194;28;20034;-62
2021/07/24 03:34:06;;;;;;;18.65;11.18;;;;;;;24.87;58.13;97109.03;4976626;28;20038;-62
2021/07/24 03:36:31;;;;;;;15.95;10.27;;;;;;;24.79;57.78;97105.72;4977779;28;20534;-62
2021/07/24 03:38:57;;;;;;;15.93;11.35;;;;;;;24.63;58.50;97107.88;4977840;28;20038;-62
2021/07/24 03:41:22;;;;;;;16.02;11.10;;;;;;;24.56;58.55;97107.06;4977809;28;20116;-62
2021/07/24 03:43:47;;;;;;;13.90;10.55;;;;;;;24.39;59.57;97096.53;4978033;28;20030;-62
2021/07/24 03:46:14;;;;;;;16.08;10.77;;;;;;;24.25;59.39;97092.16;4977660;28;20039;-62
2021/07/24 03:48:40;;;;;;;17.30;11.02;;;;;;;24.24;59.10;97085.00;4976749;28;20113;-62
2021/07/24 03:51:08;;;;;;;16.73;10.52;;;;;;;24.40;58.61;97080.91;4977845;28;20109;-62
2021/07/24 03:53:34;;;;;;;18.02;10.38;;;;;;;24.26;58.00;97091.09;4977759;28;20132;-62
2021/07/24 03:55:59;;;;;;;16.70;10.63;;;;;;;24.40;58.16;97100.16;4977400;28;20471;-62
2021/07/24 03:58:25;;;;;;;15.98;10.82;;;;;;;24.24;57.83;97102.31;4977599;28;20029;-62
2021/07/24 04:00:50;;;;;;;16.13;10.18;;;;;;;24.43;58.20;97107.13;4977687;28;20514;-62
2021/07/24 04:03:18;;;;;;;15.63;10.30;;;;;;;24.44;57.76;97095.91;4976783;28;20035;-62
2021/07/24 04:05:43;;;;;;;24.95;11.00;;;;;;;24.25;59.08;97103.13;4970332;28;20039;-61
2021/07/24 04:08:11;;;;;;;15.70;9.90;;;;;;;24.32;58.11;97100.38;4975037;28;20391;-62
2021/07/24 04:10:38;;;;;;;16.80;9.85;;;;;;;24.28;57.86;97099.97;4976190;28;20045;-62
2021/07/24 04:13:04;;;;;;;15.55;9.68;;;;;;;24.42;57.90;97110.91;4976894;28;20411;-61
2021/07/24 04:15:30;;;;;;;14.85;10.30;;;;;;;24.39;57.40;97115.78;4976563;28;20440;-61
2021/07/24 04:17:58;;;;;;;18.10;10.10;;;;;;;24.39;58.09;97115.78;4976984;28;20106;-61
2021/07/24 04:20:23;;;;;;;18.67;9.73;;;;;;;24.30;57.99;97119.81;4974597;28;20067;-61
2021/07/24 04:22:48;;;;;;;15.45;9.50;;;;;;;24.24;58.00;97124.28;4973585;28;20111;-62
2021/07/24 04:25:14;;;;;;;14.57;10.65;;;;;;;23.99;59.71;97118.66;4957109;29;20043;-61
2021/07/24 04:27:43;;;;;;;14.57;10.40;;;;;;;24.07;59.50;97120.31;4956159;29;20443;-62
2021/07/24 04:30:09;;;;;;;15.88;9.73;;;;;;;24.27;58.97;97122.19;4955526;29;20046;-62
2021/07/24 04:32:34;;;;;;;15.18;9.57;;;;;;;24.28;58.90;97121.09;4955758;29;20523;-62
2021/07/24 04:34:59;;;;;;;14.95;9.73;;;;;;;24.24;58.22;97121.53;4956993;28;20063;-62
2021/07/24 04:37:25;;;;;;;16.05;10.18;;;;;;;24.21;58.93;97121.97;4956841;29;20024;-62
2021/07/24 04:39:50;;;;;;;14.77;9.65;;;;;;;24.17;58.51;97117.13;4956092;28;20058;-62
2021/07/24 04:42:16;;;;;;;15.55;9.55;;;;;;;24.17;57.84;97112.50;4956151;28;20107;-62
2021/07/24 04:44:41;;;;;;;15.20;9.32;;;;;;;24.25;57.39;97119.63;4956948;28;20106;-62
2021/07/24 04:47:06;;;;;;;14.27;9.32;;;;;;;24.20;58.00;97123.03;4957490;29;20420;-62
2021/07/24 04:49:32;;;;;;;15.77;9.52;;;;;;;24.26;58.74;97128.72;4957108;29;20475;-62
2021/07/24 04:51:59;;;;;;;15.57;9.73;;;;;;;24.35;58.89;97124.69;4957113;28;20031;-62
2021/07/24 04:54:24;;;;;;;15.43;10.57;;;;;;;24.40;59.65;97119.38;4977372;28;20121;-61
2021/07/24 04:56:50;;;;;;;20.00;11.52;;;;;;;24.42;60.08;97122.75;4975842;28;20106;-61
2021/07/24 04:59:16;;;;;;;17.52;10.88;;;;;;;24.37;60.91;97109.66;4985624;28;20443;-61
2021/07/24 05:01:41;;;;;;;17.13;11.32;;;;;;;24.33;62.16;97108.41;4974310;28;20038;-62
2021/07/24 05:04:07;;;;;;;16.33;11.80;;;;;;;24.26;62.26;97110.31;4975674;28;20031;-62
2021/07/24 05:06:32;;;;;;;19.20;11.40;;;;;;;24.23;62.46;97110.78;4976280;28;20105;-62
2021/07/24 05:08:58;;;;;;;15.60;10.85;;;;;;;24.24;61.91;97107.81;4975619;28;20135;-61
2021/07/24 05:11:23;;;;;;;16.25;10.73;;;;;;;24.20;61.15;97114.78;4975351;28;20491;-61
2021/07/24 05:13:49;;;;;;;18.20;10.88;;;;;;;24.21;60.90;97111.00;4975363;28;20118;-60
2021/07/24 05:16:14;;;;;;;16.17;10.48;;;;;;;24.15;61.92;97116.50;4973347;28;20476;-61
2021/07/24 05:18:39;;;;;;;13.88;9.73;;;;;;;24.26;61.30;97106.75;4973301;28;20031;-62
2021/07/24 05:21:05;;;;;;;16.58;10.02;;;;;;;24.27;61.13;97111.19;4973817;28;20129;-62
2021/07/24 05:23:30;;;;;;;13.82;9.90;;;;;;;24.35;61.04;97108.19;4972987;28;20031;-61
2021/07/24 05:25:56;;;;;;;14.65;10.48;;;;;;;24.27;61.84;97105.69;4972725;28;20109;-61
2021/07/24 05:28:21;;;;;;;17.58;10.50;;;;;;;24.48;62.09;97110.88;4973759;28;20038;-61
2021/07/24 05:30:46;;;;;;;19.50;11.77;;;;;;;24.63;62.01;97123.56;4974869;28;20438;-61
2021/07/24 05:33:12;;;;;;;15.93;12.00;;;;;;;24.55;63.45;97127.34;4974736;28;20058;-61
2021/07/24 05:35:37;;;;;;;20.23;14.38;;;;;;;24.28;64.37;97132.09;4975029;28;20027;-61
2021/07/24 05:38:04;;;;;;;25.63;14.27;;;;;;;24.10;65.57;97136.38;4974033;28;20023;-60
2021/07/24 05:40:29;;;;;;;23.75;14.82;;;;;;;23.96;65.76;97130.06;4970961;28;20026;-60
2021/07/24 05:43:01;;;;;;;21.77;15.27;;;;;;;24.01;65.81;97127.53;4962090;28;20026;-60
2021/07/24 05:45:26;;;;;;;23.00;15.45;;;;;;;24.17;65.64;97130.84;4971501;28;20031;-60
2021/07/24 05:47:51;;;;;;;21.08;14.18;;;;;;;24.34;64.57;97139.47;4964615;28;20034;-59
2021/07/24 05:50:17;;;;;;;21.00;15.80;;;;;;;23.95;66.15;97138.53;4963141;28;20103;-60
2021/07/24 05:52:42;;;;;;;25.15;15.32;;;;;;;24.04;65.89;97126.25;4964861;28;20526;-60
2021/07/24 05:55:08;;;;;;;31.23;14.48;;;;;;;24.41;64.67;97101.81;4964785;28;20031;-59
2021/07/24 05:57:36;;;;;;;23.05;15.43;;;;;;;24.43;65.10;97091.47;4954154;28;20059;-63
2021/07/24 06:00:03;;;;;;;24.85;15.45;;;;;;;24.54;64.83;97090.75;4953760;28;20464;-61
2021/07/24 06:02:28;;;;;;;21.90;14.70;;;;;;;24.63;64.22;97079.56;4952680;29;20115;-60
2021/07/24 06:04:53;;;;;;;23.98;15.23;;;;;;;24.69;64.00;97074.03;4957625;28;20558;-61
2021/07/24 06:07:19;;;;;;;21.20;14.95;;;;;;;24.80;63.68;97074.38;4963582;28;20072;-61
2021/07/24 06:09:45;;;;;;;18.90;14.10;;;;;;;24.68;64.28;97083.34;4956063;28;20027;-63
2021/07/24 06:12:10;;;;;;;19.98;14.27;;;;;;;24.84;63.78;97089.38;4952264;29;20046;-61
2021/07/24 06:14:36;;;;;;;24.08;14.93;;;;;;;24.74;63.98;97081.59;4953230;28;20107;-61
2021/07/24 06:17:02;;;;;;;21.92;15.60;;;;;;;24.86;64.30;97084.50;4952704;28;20093;-59
2021/07/24 06:19:27;;;;;;;27.65;15.32;;;;;;;24.74;65.07;97101.69;4951496;28;20023;-59
2021/07/24 06:21:53;;;;;;;26.38;16.02;;;;;;;24.27;66.25;97112.03;4951624;28;20035;-61
2021/07/24 06:24:18;;;;;;;27.60;16.30;;;;;;;24.18;66.48;97110.56;4951395;28;20038;-60
2021/07/24 06:26:44;;;;;;;23.70;16.08;;;;;;;24.40;65.73;97102.91;4951927;28;20064;-61
2021/07/24 06:29:10;;;;;;;23.42;16.40;;;;;;;24.69;64.81;97108.91;4949893;29;20027;-61
2021/07/24 06:31:38;;;;;;;31.98;15.95;;;;;;;24.80;64.85;97107.38;4957051;28;20039;-61
2021/07/24 06:34:04;;;;;;;23.05;16.25;;;;;;;24.71;64.88;97104.06;4969972;28;20035;-60
2021/07/24 06:36:29;;;;;;;22.65;14.80;;;;;;;24.85;63.92;97105.66;4970590;28;20109;-62
2021/07/24 06:38:55;;;;;;;21.88;15.57;;;;;;;24.87;63.39;97094.44;4970798;28;20121;-59
2021/07/24 06:41:21;;;;;;;26.42;16.95;;;;;;;24.61;64.38;97092.63;4969274;28;20074;-58
2021/07/24 06:43:46;;;;;;;22.92;15.52;;;;;;;24.28;65.58;97083.50;4969566;28;20038;-59
2021/07/24 06:46:16;;;;;;;23.45;15.45;;;;;;;24.47;64.76;97080.88;4970580;28;20103;-59
2021/07/24 06:48:42;;;;;;;22.42;16.08;;;;;;;24.56;64.66;97085.06;4954855;28;20531;-63
2021/07/24 06:51:08;;;;;;;25.80;16.13;;;;;;;24.58;65.19;97082.91;4950628;29;20050;-61
2021/07/24 06:53:35;;;;;;;21.48;14.20;;;;;;;24.86;64.04;97077.06;4935473;29;20151;-61
2021/07/24 06:56:01;;;;;;;21.65;14.55;;;;;;;24.96;63.87;97076.63;4936713;29;20027;-63
2021/07/24 06:58:26;;;;;;;19.90;13.73;;;;;;;24.98;62.87;97074.47;4953250;29;20023;-63
2021/07/24 07:00:52;;;;;;;18.25;12.60;;;;;;;24.99;62.66;97080.81;4953280;29;20038;-61
2021/07/24 07:03:17;;;;;;;21.00;13.73;;;;;;;24.77;63.71;97086.66;4953086;29;20396;-61
2021/07/24 07:05:43;;;;;;;19.67;13.38;;;;;;;25.03;63.47;97085.66;4954208;28;20523;-61
2021/07/24 07:08:08;;;;;;;19.45;13.38;;;;;;;25.12;63.02;97077.97;4953181;29;20082;-62
2021/07/24 07:10:33;;;;;;;17.77;12.00;;;;;;;25.37;62.20;97074.41;4954653;28;20057;-61
2021/07/24 07:12:59;;;;;;;21.42;12.40;;;;;;;25.62;60.90;97074.41;4954372;28;20387;-61
2021/07/24 07:15:26;;;;;;;20.50;12.65;;;;;;;25.83;60.27;97073.16;4952690;29;20090;-61
2021/07/24 07:17:51;;;;;;;17.83;12.20;;;;;;;25.87;59.73;97081.81;4953252;29;20110;-61
2021/07/24 07:20:17;;;;;;;21.45;11.82;;;;;;;26.04;58.66;97088.44;4952679;29;20118;-63
2021/07/24 07:22:43;;;;;;;19.00;13.35;;;;;;;25.92;59.73;97075.59;4952671;29;20027;-61
2021/07/24 07:25:09;;;;;;;26.90;14.23;;;;;;;26.04;59.62;97073.78;4954088;28;20546;-61
2021/07/24 07:27:34;;;;;;;20.45;14.48;;;;;;;26.17;58.79;97067.31;4954421;28;20153;-61
2021/07/24 07:29:59;;;;;;;22.48;14.15;;;;;;;26.26;58.39;97065.06;4953980;28;20074;-61
2021/07/24 07:32:25;;;;;;;23.67;14.25;;;;;;;26.27;58.14;97070.38;4953710;28;20028;-60
2021/07/24 07:34:52;;;;;;;24.08;14.82;;;;;;;26.32;57.87;97076.00;4963060;28;20027;-60
2021/07/24 07:37:17;;;;;;;20.90;13.68;;;;;;;26.32;57.90;97077.94;4963624;28;20025;-61
2021/07/24 07:39:42;;;;;;;22.50;15.27;;;;;;;26.37;56.86;97078.09;4964315;28;20032;-61
2021/07/24 07:42:08;;;;;;;24.45;15.77;;;;;;;26.35;56.51;97080.22;4962112;28;20026;-63
2021/07/24 07:44:33;;;;;;;22.67;15.25;;;;;;;26.41;56.86;97095.84;4962657;28;20030;-62
2021/07/24 07:46:59;;;;;;;21.35;15.23;;;;;;;26.49;56.42;97091.94;4960470;28;20491;-62
2021/07/24 07:49:24;;;;;;;21.17;15.32;;;;;;;26.37;56.58;97100.97;4962807;28;20023;-62
2021/07/24 07:51:49;;;;;;;25.73;16.65;;;;;;;26.21;57.77;97102.44;4965063;28;20054;-62
2021/07/24 07:54:15;;;;;;;25.33;17.25;;;;;;;26.10;58.05;97105.97;4964372;28;20019;-62
2021/07/24 07:56:40;;;;;;;20.60;15.00;;;;;;;26.20;57.68;97106.28;4962034;28;20031;-61
2021/07/24 07:59:06;;;;;;;20.85;14.52;;;;;;;26.23;56.88;97113.25;4966200;28;20055;-62
2021/07/24 08:01:31;;;;;;;21.08;14.60;;;;;;;26.25;57.27;97124.03;4967192;28;20491;-61
2021/07/24 08:03:56;;;;;;;23.63;16.83;;;;;;;26.13;56.83;97124.78;4967849;28;20030;-62
2021/07/24 08:06:22;;;;;;;20.40;14.80;;;;;;;26.09;57.29;97120.81;4964081;28;20027;-62
2021/07/24 08:08:47;;;;;;;28.55;16.58;;;;;;;26.06;57.29;97115.75;4967770;28;20430;-62
2021/07/24 08:11:14;;;;;;;23.15;16.08;;;;;;;26.19;57.01;97117.50;4965651;28;20474;-61
2021/07/24 08:13:39;;;;;;;25.13;15.32;;;;;;;26.18;57.35;97129.63;4967046;28;20491;-62
2021/07/24 08:16:12;;;;;;;21.73;15.80;;;;;;;26.24;56.86;97134.19;4966766;28;20114;-62
2021/07/24 08:18:38;;;;;;;25.55;14.32;;;;;;;26.26;56.41;97139.47;4950733;28;20033;-62
2021/07/24 08:21:04;;;;;;;22.60;13.43;;;;;;;26.15;57.04;97144.69;4967382;28;20031;-62
2021/07/24 08:23:29;;;;;;;25.20;14.65;;;;;;;26.14;57.00;97148.53;4965605;28;20027;-63
2021/07/24 08:25:55;;;;;;;22.33;15.95;;;;;;;26.19;56.74;97148.69;4964832;28;20138;-62
2021/07/24 08:28:25;;;;;;;21.38;15.55;;;;;;;26.26;56.54;97150.50;4966681;28;20054;-61
2021/07/24 08:30:50;;;;;;;24.10;16.20;;;;;;;26.20;56.87;97158.66;4967511;28;20022;-62
2021/07/24 08:33:16;;;;;;;23.95;15.82;;;;;;;26.26;56.53;97150.50;4977118;28;20098;-62
2021/07/24 08:35:41;;;;;;;22.75;16.80;;;;;;;25.38;59.38;97139.41;4975675;28;20015;-62
2021/07/24 08:38:06;;;;;;;23.20;16.85;;;;;;;25.38;59.95;97128.41;4968882;28;20033;-61
2021/07/24 08:40:32;;;;;;;24.95;16.95;;;;;;;25.81;58.21;97113.00;4967348;28;20037;-63
2021/07/24 08:43:05;;;;;;;22.40;15.35;;;;;;;26.35;56.08;97108.66;4965743;28;20051;-63
2021/07/24 08:45:32;;;;;;;21.70;13.98;;;;;;;26.51;55.91;97104.41;4964430;28;20034;-64
2021/07/24 08:48:03;;;;;;;24.83;14.45;;;;;;;26.74;55.30;97091.84;4967408;28;20542;-61
2021/07/24 08:50:28;;;;;;;24.50;16.02;;;;;;;26.81;54.92;97086.25;4968552;28;20046;-62
2021/07/24 08:52:54;;;;;;;26.60;16.23;;;;;;;26.85;54.61;97071.72;4965196;28;20399;-62
2021/07/24 08:55:24;;;;;;;21.75;14.45;;;;;;;26.96;54.61;97072.00;4967473;28;20033;-62
2021/07/24 08:57:54;;;;;;;18.95;13.90;;;;;;;27.03;53.76;97059.81;4967107;28;20030;-62
2021/07/24 09:00:22;;;;;;;20.88;15.43;;;;;;;27.03;53.55;97048.75;4964644;28;20541;-63
2021/07/24 09:02:51;;;;;;;22.17;14.65;;;;;;;27.32;53.34;97042.56;4965926;28;20030;-62
2021/07/24 09:05:17;;;;;;;20.98;15.02;;;;;;;27.17;53.20;97027.31;4966053;28;20031;-62
2021/07/24 09:07:50;;;;;;;21.92;13.68;;;;;;;27.16;53.03;97035.81;4964303;28;20024;-63
2021/07/24 09:10:17;;;;;;;21.48;14.27;;;;;;;27.17;51.74;97041.09;4966217;28;20110;-62
2021/07/24 09:12:45;;;;;;;22.25;13.10;;;;;;;27.35;52.16;97053.13;4967028;28;20037;-62
2021/07/24 09:15:14;;;;;;;20.40;13.07;;;;;;;27.30;52.61;97044.72;4965633;28;20023;-62
2021/07/24 09:17:39;;;;;;;17.10;12.93;;;;;;;27.22;52.09;97037.66;4965040;28;20043;-62
2021/07/24 09:20:05;;;;;;;18.02;12.30;;;;;;;27.16;51.99;97025.63;4964936;28;20062;-62
2021/07/24 09:22:31;;;;;;;18.75;12.48;;;;;;;27.11;50.70;97006.19;4964908;28;20023;-60
2021/07/24 09:25:15;;;;;;;17.55;11.40;;;;;;;27.31;49.94;97007.75;4964866;28;20447;-61
2021/07/24 09:27:50;;;;;;;14.90;10.48;;;;;;;27.33;50.14;97008.38;4966835;28;20023;-60
2021/07/24 09:30:27;;;;;;;20.63;12.07;;;;;;;27.35;50.43;97008.94;4964725;28;20023;-60
2021/07/24 09:33:07;;;;;;;19.85;12.15;;;;;;;27.54;50.56;97018.84;4965817;28;20462;-60
2021/07/24 09:35:36;;;;;;;;;;;;;;;27.62;50.15;97025.06;4964796;28;20024;-60
2021/07/24 09:38:03;;;;;;;19.48;12.07;;;;;;;27.43;50.64;97022.44;4964816;28;19986;-62
2021/07/24 09:40:28;;;;;;;23.25;11.63;;;;;;;27.60;50.45;97030.84;4963358;28;20034;-61
2021/07/24 09:42:54;;;;;;;20.70;12.93;;;;;;;27.65;50.24;97043.94;4966388;28;20023;-62
2021/07/24 09:45:20;;;;;;;18.25;12.85;;;;;;;27.66;50.59;97045.59;4964204;28;20023;-62
2021/07/24 09:47:47;;;;;;;18.88;12.00;;;;;;;27.68;50.82;97051.75;4971428;28;20105;-62
2021/07/24 09:50:16;;;;;;;18.27;12.88;;;;;;;27.69;50.07;97047.91;4973226;28;20078;-63
2021/07/24 09:52:52;;;;;;;20.17;12.15;;;;;;;27.69;49.60;97045.16;4975120;28;20121;-62
2021/07/24 09:55:20;;;;;;;17.23;11.65;;;;;;;27.98;49.65;97048.84;4956098;28;20038;-61
2021/07/24 09:57:46;;;;;;;21.27;12.25;;;;;;;28.10;48.53;97048.88;4966444;28;20065;-62
2021/07/24 10:00:25;;;;;;;20.02;12.00;;;;;;;27.93;48.54;97045.09;4964066;28;20037;-63
2021/07/24 10:02:59;;;;;;;19.50;11.18;;;;;;;28.13;49.04;97051.13;4961342;28;20023;-60
2021/07/24 10:05:40;;;;;;;15.18;11.18;;;;;;;28.16;48.79;97047.88;4968212;28;20030;-60
2021/07/24 10:08:09;;;;;;;17.20;12.52;;;;;;;28.03;49.01;97039.84;4967097;28;20039;-63
2021/07/24 10:10:37;;;;;;;17.35;12.43;;;;;;;27.96;48.58;97039.13;4971569;28;20042;-63
2021/07/24 10:13:06;;;;;;;16.00;11.88;;;;;;;28.16;48.82;97039.59;4956295;28;20019;-61
2021/07/24 10:15:37;;;;;;;17.17;11.40;;;;;;;28.37;47.81;97029.78;4973531;28;20041;-62
2021/07/24 10:18:02;;;;;;;20.17;12.40;;;;;;;28.47;47.44;97020.84;4974179;28;20089;-62
2021/07/24 10:20:28;;;;;;;19.08;13.00;;;;;;;28.43;47.24;97030.72;4973298;28;20019;-61
2021/07/24 10:22:53;;;;;;;20.02;13.25;;;;;;;28.01;48.02;97033.75;4972789;28;20018;-62
2021/07/24 10:25:21;;;;;;;22.50;13.50;;;;;;;27.40;49.25;97020.16;4974131;28;20114;-63
2021/07/24 10:27:46;;;;;;;24.00;11.88;;;;;;;27.68;49.69;97019.44;4974349;28;20031;-63
2021/07/24 10:30:13;;;;;;;17.52;11.27;;;;;;;28.00;49.37;97021.78;4973108;28;20081;-63
2021/07/24 10:32:39;;;;;;;15.13;11.25;;;;;;;28.38;49.15;97025.94;4972959;28;20081;-60
2021/07/24 10:35:05;;;;;;;18.13;12.75;;;;;;;28.32;47.67;97031.63;4972925;28;20027;-61
2021/07/24 10:37:42;;;;;;;15.02;11.43;;;;;;;28.35;47.63;97023.66;4971088;28;20065;-61
2021/07/24 10:40:17;;;;;;;19.80;11.65;;;;;;;28.21;47.90;97020.34;4973048;28;20035;-63
2021/07/24 10:42:50;;;;;;;19.02;11.70;;;;;;;28.18;47.72;97025.50;4973172;28;20050;-64
2021/07/24 10:45:48;;;;;;;13.85;10.52;;;;;;;28.36;47.91;97016.22;4972596;28;20067;-63
2021/07/24 10:48:13;;;;;;;17.00;11.35;;;;;;;28.70;46.55;97028.25;4973357;28;20039;-63
2021/07/24 10:50:53;;;;;;;15.63;11.10;;;;;;;28.64;46.43;97025.63;4973128;28;20344;-62
2021/07/24 10:53:23;;;;;;;14.30;10.90;;;;;;;28.53;46.29;97030.94;4973307;28;20049;-62
2021/07/24 10:55:50;;;;;;;17.67;10.75;;;;;;;28.63;46.15;97023.94;4974094;28;20038;-62
2021/07/24 10:58:24;;;;;;;15.77;11.00;;;;;;;28.81;45.91;97022.91;4971670;28;20133;-62
2021/07/24 11:00:55;;;;;;;16.17;10.85;;;;;;;28.64;47.22;97033.91;4972959;28;20042;-62
2021/07/24 11:03:33;;;;;;;19.50;11.65;;;;;;;28.67;46.41;97034.28;4962081;28;20029;-62
2021/07/24 11:05:59;;;;;;;16.08;10.30;;;;;;;28.66;46.43;97042.81;4973837;28;20031;-62
2021/07/24 11:09:09;;;;;;;16.50;10.35;;;;;;;28.63;46.69;97033.06;4973763;28;20035;-62
2021/07/24 11:11:36;;;;;;;18.55;10.98;;;;;;;28.60;46.69;97036.31;4967923;28;20038;-62
2021/07/24 11:14:02;;;;;;;18.40;11.20;;;;;;;28.69;46.79;97025.75;4973264;28;20038;-62
2021/07/24 11:17:08;;;;;;;16.38;10.63;;;;;;;28.77;45.76;97022.56;4973419;28;20086;-62
2021/07/24 11:19:36;;;;;;;18.65;11.38;;;;;;;28.89;45.86;97020.59;4973880;28;20018;-62